sensor_id;sensor_type;location;lat;lon;timestamp;pressure;altitude;pressure_sealevel;temperature;humidity
77725;BME280;66892;53.236;6.550;2023-11-19T00:00:16;100609.91;;;10.24;100.00
77725;BME280;66892;53.236;6.550;2023-11-19T00:02:43;100611.63;;;10.29;100.00
77725;BME280;66892;53.236;6.550;2023-11-19T00:05:10;100605.41;;;10.39;100.00
77725;BME280;66892;53.236;6.550;2023-11-19T00:07:40;100600.09;;;10.41;100.00
77725;BME280;66892;53.236;6.550;2023-11-19T00:10:08;100584.22;;;10.41;100.00
77725;BME280;66892;53.236;6.550;2023-11-19T00:12:36;100580.66;;;10.49;100.00
77725;BME280;66892;53.236;6.550;2023-11-19T00:15:02;100577.06;;;10.56;100.00
77725;BME280;66892;53.236;6.550;2023-11-19T00:17:28;100577.91;;;10.63;100.00
77725;BME280;66892;53.236;6.550;2023-11-19T00:19:54;100572.59;;;10.66;100.00
77725;BME280;66892;53.236;6.550;2023-11-19T00:22:22;100579.63;;;10.72;100.00
77725;BME280;66892;53.236;6.550;2023-11-19T00:24:48;100575.16;;;10.77;100.00
77725;BME280;66892;53.236;6.550;2023-11-19T00:27:14;100563.63;;;10.84;100.00
77725;BME280;66892;53.236;6.550;2023-11-19T00:29:41;100557.41;;;10.89;100.00
77725;BME280;66892;53.236;6.550;2023-11-19T00:32:08;100557.44;;;10.88;100.00
77725;BME280;66892;53.236;6.550;2023-11-19T00:34:34;100567.97;;;10.92;100.00
77725;BME280;66892;53.236;6.550;2023-11-19T00:37:00;100557.44;;;10.88;100.00
77725;BME280;66892;53.236;6.550;2023-11-19T00:39:27;100562.72;;;10.88;100.00
77725;BME280;66892;53.236;6.550;2023-11-19T00:41:53;100567.97;;;10.94;100.00
77725;BME280;66892;53.236;6.550;2023-11-19T00:44:19;100559.97;;;11.00;100.00
77725;BME280;66892;53.236;6.550;2023-11-19T00:46:45;100549.28;;;11.09;100.00
77725;BME280;66892;53.236;6.550;2023-11-19T00:49:11;100545.75;;;11.08;100.00
77725;BME280;66892;53.236;6.550;2023-11-19T00:51:37;100550.16;;;11.08;100.00
77725;BME280;66892;53.236;6.550;2023-11-19T00:54:04;100536.00;;;11.12;100.00
77725;BME280;66892;53.236;6.550;2023-11-19T00:56:31;100531.56;;;11.17;100.00
77725;BME280;66892;53.236;6.550;2023-11-19T00:58:57;100529.78;;;11.19;100.00
77725;BME280;66892;53.236;6.550;2023-11-19T01:01:23;100526.22;;;11.22;100.00
77725;BME280;66892;53.236;6.550;2023-11-19T01:03:49;100529.75;;;11.24;100.00
77725;BME280;66892;53.236;6.550;2023-11-19T01:06:26;100521.75;;;11.27;100.00
77725;BME280;66892;53.236;6.550;2023-11-19T01:08:52;100523.44;;;11.32;100.00
77725;BME280;66892;53.236;6.550;2023-11-19T01:11:22;100520.81;;;11.32;100.00
77725;BME280;66892;53.236;6.550;2023-11-19T01:13:49;100520.78;;;11.34;100.00
77725;BME280;66892;53.236;6.550;2023-11-19T01:16:16;100526.06;;;11.34;100.00
77725;BME280;66892;53.236;6.550;2023-11-19T01:18:42;100521.66;;;11.36;100.00
77725;BME280;66892;53.236;6.550;2023-11-19T01:21:08;100526.03;;;11.37;100.00
77725;BME280;66892;53.236;6.550;2023-11-19T01:23:34;100524.28;;;11.36;100.00
77725;BME280;66892;53.236;6.550;2023-11-19T01:26:00;100526.03;;;11.37;100.00
77725;BME280;66892;53.236;6.550;2023-11-19T01:28:26;100529.59;;;11.34;100.00
77725;BME280;66892;53.236;6.550;2023-11-19T01:30:53;100534.94;;;11.33;100.00
77725;BME280;66892;53.236;6.550;2023-11-19T01:33:19;100527.75;;;11.41;100.00
77725;BME280;66892;53.236;6.550;2023-11-19T01:35:47;100531.28;;;11.40;100.00
77725;BME280;66892;53.236;6.550;2023-11-19T01:38:13;100521.53;;;11.43;100.00
77725;BME280;66892;53.236;6.550;2023-11-19T01:40:39;100524.22;;;11.42;100.00
77725;BME280;66892;53.236;6.550;2023-11-19T01:43:05;100522.47;;;11.42;100.00
77725;BME280;66892;53.236;6.550;2023-11-19T01:45:31;100522.50;;;11.39;100.00
77725;BME280;66892;53.236;6.550;2023-11-19T01:48:02;100511.88;;;11.41;100.00
77725;BME280;66892;53.236;6.550;2023-11-19T01:50:31;100518.06;;;11.40;100.00
77725;BME280;66892;53.236;6.550;2023-11-19T01:52:59;100512.75;;;11.43;100.00
77725;BME280;66892;53.236;6.550;2023-11-19T01:55:26;100508.28;;;11.45;100.00
77725;BME280;66892;53.236;6.550;2023-11-19T01:57:54;100508.41;;;11.36;100.00
77725;BME280;66892;53.236;6.550;2023-11-19T02:00:24;100498.78;;;11.29;100.00
77725;BME280;66892;53.236;6.550;2023-11-19T02:02:51;100493.47;;;11.30;100.00
77725;BME280;66892;53.236;6.550;2023-11-19T02:05:19;100482.81;;;11.35;100.00
77725;BME280;66892;53.236;6.550;2023-11-19T02:07:45;100488.97;;;11.38;100.00
77725;BME280;66892;53.236;6.550;2023-11-19T02:10:12;100485.47;;;11.36;100.00
77725;BME280;66892;53.236;6.550;2023-11-19T02:12:40;100481.97;;;11.31;100.00
77725;BME280;66892;53.236;6.550;2023-11-19T02:15:09;100485.59;;;11.26;100.00
77725;BME280;66892;53.236;6.550;2023-11-19T02:17:35;100490.91;;;11.23;100.00
77725;BME280;66892;53.236;6.550;2023-11-19T02:20:04;100497.03;;;11.29;100.00
77725;BME280;66892;53.236;6.550;2023-11-19T02:22:39;100500.47;;;11.34;100.00
77725;BME280;66892;53.236;6.550;2023-11-19T02:25:07;100499.56;;;11.37;100.00
77725;BME280;66892;53.236;6.550;2023-11-19T02:27:47;100509.28;;;11.36;100.00
77725;BME280;66892;53.236;6.550;2023-11-19T02:30:16;100502.28;;;11.32;100.00
77725;BME280;66892;53.236;6.550;2023-11-19T02:32:42;100498.78;;;11.29;100.00
77725;BME280;66892;53.236;6.550;2023-11-19T02:35:08;100503.22;;;11.25;100.00
77725;BME280;66892;53.236;6.550;2023-11-19T02:37:35;100497.19;;;11.14;100.00
77725;BME280;66892;53.236;6.550;2023-11-19T02:40:01;100494.59;;;11.09;100.00
77725;BME280;66892;53.236;6.550;2023-11-19T02:42:29;100492.78;;;11.11;100.00
77725;BME280;66892;53.236;6.550;2023-11-19T02:44:56;100503.41;;;11.10;100.00
77725;BME280;66892;53.236;6.550;2023-11-19T02:47:22;100499.84;;;11.14;100.00
77725;BME280;66892;53.236;6.550;2023-11-19T02:49:49;100498.06;;;11.16;100.00
77725;BME280;66892;53.236;6.550;2023-11-19T02:52:16;100493.72;;;11.10;100.00
77725;BME280;66892;53.236;6.550;2023-11-19T02:54:42;100493.78;;;11.03;100.00
77725;BME280;66892;53.236;6.550;2023-11-19T02:57:08;100496.47;;;11.00;100.00
77725;BME280;66892;53.236;6.550;2023-11-19T02:59:39;100488.59;;;10.94;100.00
77725;BME280;66892;53.236;6.550;2023-11-19T03:02:08;100480.66;;;10.94;100.00
77725;BME280;66892;53.236;6.550;2023-11-19T03:04:37;100470.97;;;10.93;100.00
77725;BME280;66892;53.236;6.550;2023-11-19T03:07:06;100476.25;;;10.94;100.00
77725;BME280;66892;53.236;6.550;2023-11-19T03:09:35;100485.09;;;10.90;100.00
77725;BME280;66892;53.236;6.550;2023-11-19T03:12:02;100469.22;;;10.89;100.00
77725;BME280;66892;53.236;6.550;2023-11-19T03:14:28;100467.53;;;10.85;100.00
77725;BME280;66892;53.236;6.550;2023-11-19T03:16:54;100474.66;;;10.78;100.00
77725;BME280;66892;53.236;6.550;2023-11-19T03:19:21;100479.06;;;10.78;100.00
77725;BME280;66892;53.236;6.550;2023-11-19T03:21:47;100472.84;;;10.80;100.00
77725;BME280;66892;53.236;6.550;2023-11-19T03:24:13;100467.53;;;10.85;100.00
77725;BME280;66892;53.236;6.550;2023-11-19T03:26:40;100463.06;;;10.91;100.00
77725;BME280;66892;53.236;6.550;2023-11-19T03:29:06;100470.88;;;10.99;100.00
77725;BME280;66892;53.236;6.550;2023-11-19T03:31:32;100463.75;;;11.05;100.00
77725;BME280;66892;53.236;6.550;2023-11-19T03:33:58;100461.06;;;11.08;100.00
77725;BME280;66892;53.236;6.550;2023-11-19T03:36:31;100461.13;;;11.07;100.00
77725;BME280;66892;53.236;6.550;2023-11-19T03:38:58;100464.59;;;11.10;100.00
77725;BME280;66892;53.236;6.550;2023-11-19T03:41:24;100455.78;;;11.10;100.00
77725;BME280;66892;53.236;6.550;2023-11-19T03:43:50;100463.69;;;11.11;100.00
77725;BME280;66892;53.236;6.550;2023-11-19T03:46:17;100460.16;;;11.13;100.00
77725;BME280;66892;53.236;6.550;2023-11-19T03:48:44;100454.78;;;11.19;100.00
77725;BME280;66892;53.236;6.550;2023-11-19T03:51:11;100451.25;;;11.20;100.00
77725;BME280;66892;53.236;6.550;2023-11-19T03:53:42;100462.81;;;11.14;100.00
77725;BME280;66892;53.236;6.550;2023-11-19T03:56:09;100464.59;;;11.10;100.00
77725;BME280;66892;53.236;6.550;2023-11-19T03:58:38;100446.13;;;11.06;100.00
77725;BME280;66892;53.236;6.550;2023-11-19T04:01:05;100462.84;;;11.09;100.00
77725;BME280;66892;53.236;6.550;2023-11-19T04:03:31;100452.22;;;11.14;100.00
77725;BME280;66892;53.236;6.550;2023-11-19T04:05:57;100442.47;;;11.15;100.00
77725;BME280;66892;53.236;6.550;2023-11-19T04:08:23;100446.94;;;11.13;100.00
77725;BME280;66892;53.236;6.550;2023-11-19T04:10:50;100452.22;;;11.13;100.00
77725;BME280;66892;53.236;6.550;2023-11-19T04:13:16;100446.13;;;11.07;100.00
77725;BME280;66892;53.236;6.550;2023-11-19T04:15:42;100439.97;;;11.02;100.00
77725;BME280;66892;53.236;6.550;2023-11-19T04:18:09;100446.13;;;11.06;100.00
77725;BME280;66892;53.236;6.550;2023-11-19T04:20:35;100451.41;;;11.06;100.00
77725;BME280;66892;53.236;6.550;2023-11-19T04:23:02;100446.13;;;11.07;100.00
77725;BME280;66892;53.236;6.550;2023-11-19T04:25:28;100448.75;;;11.04;100.00
77725;BME280;66892;53.236;6.550;2023-11-19T04:27:55;100444.34;;;11.06;100.00
77725;BME280;66892;53.236;6.550;2023-11-19T04:30:21;100445.19;;;11.08;100.00
77725;BME280;66892;53.236;6.550;2023-11-19T04:32:47;100445.16;;;11.13;100.00
77725;BME280;66892;53.236;6.550;2023-11-19T04:35:14;100446.88;;;11.16;100.00
77725;BME280;66892;53.236;6.550;2023-11-19T04:37:41;100459.25;;;11.15;100.00
77725;BME280;66892;53.236;6.550;2023-11-19T04:40:07;100454.03;;;11.09;100.00
77725;BME280;66892;53.236;6.550;2023-11-19T04:42:34;100452.25;;;11.09;100.00
77725;BME280;66892;53.236;6.550;2023-11-19T04:45:02;100453.09;;;11.13;100.00
77725;BME280;66892;53.236;6.550;2023-11-19T04:47:28;100446.09;;;11.10;100.00
77725;BME280;66892;53.236;6.550;2023-11-19T04:49:54;100457.66;;;10.99;100.00
77725;BME280;66892;53.236;6.550;2023-11-19T04:52:20;100442.00;;;10.79;100.00
77725;BME280;66892;53.236;6.550;2023-11-19T04:54:46;100447.34;;;10.73;100.00
77725;BME280;66892;53.236;6.550;2023-11-19T04:57:14;100442.94;;;10.74;100.00
77725;BME280;66892;53.236;6.550;2023-11-19T04:59:40;100444.69;;;10.78;100.00
77725;BME280;66892;53.236;6.550;2023-11-19T05:02:08;100452.53;;;10.84;100.00
77725;BME280;66892;53.236;6.550;2023-11-19T05:04:35;100442.78;;;10.89;100.00
77725;BME280;66892;53.236;6.550;2023-11-19T05:07:01;100444.59;;;10.82;100.00
77725;BME280;66892;53.236;6.550;2023-11-19T05:09:27;100457.00;;;10.82;100.00
77725;BME280;66892;53.236;6.550;2023-11-19T05:11:53;100455.25;;;10.78;100.00
77725;BME280;66892;53.236;6.550;2023-11-19T05:14:19;100457.88;;;10.79;100.00
77725;BME280;66892;53.236;6.550;2023-11-19T05:16:47;100452.63;;;10.76;100.00
77725;BME280;66892;53.236;6.550;2023-11-19T05:19:14;100460.56;;;10.73;100.00
77725;BME280;66892;53.236;6.550;2023-11-19T05:21:41;100457.09;;;10.71;100.00
77725;BME280;66892;53.236;6.550;2023-11-19T05:24:07;100452.72;;;10.69;100.00
77725;BME280;66892;53.236;6.550;2023-11-19T05:26:33;100452.75;;;10.66;100.00
77725;BME280;66892;53.236;6.550;2023-11-19T05:28:59;100452.72;;;10.67;100.00
77725;BME280;66892;53.236;6.550;2023-11-19T05:31:25;100462.38;;;10.70;100.00
77725;BME280;66892;53.236;6.550;2023-11-19T05:33:51;100466.00;;;10.59;100.00
77725;BME280;66892;53.236;6.550;2023-11-19T05:36:19;100478.41;;;10.56;100.00
77725;BME280;66892;53.236;6.550;2023-11-19T05:38:45;100465.19;;;10.56;100.00
77725;BME280;66892;53.236;6.550;2023-11-19T05:41:11;100467.84;;;10.53;100.00
77725;BME280;66892;53.236;6.550;2023-11-19T05:43:37;100452.84;;;10.53;100.00
77725;BME280;66892;53.236;6.550;2023-11-19T05:46:06;100461.66;;;10.54;100.00
77725;BME280;66892;53.236;6.550;2023-11-19T05:48:32;100467.81;;;10.54;100.00
77725;BME280;66892;53.236;6.550;2023-11-19T05:50:58;100471.38;;;10.52;100.00
77725;BME280;66892;53.236;6.550;2023-11-19T05:53:27;100472.28;;;10.48;100.00
77725;BME280;66892;53.236;6.550;2023-11-19T05:55:53;100474.91;;;10.52;100.00
77725;BME280;66892;53.236;6.550;2023-11-19T05:58:25;100470.50;;;10.47;100.00
77725;BME280;66892;53.236;6.550;2023-11-19T06:00:54;100473.28;;;10.36;100.00
77725;BME280;66892;53.236;6.550;2023-11-19T06:03:21;100481.22;;;10.32;100.00
77725;BME280;66892;53.236;6.550;2023-11-19T06:05:47;100468.03;;;10.30;100.00
77725;BME280;66892;53.236;6.550;2023-11-19T06:08:14;100484.81;;;10.22;100.00
77725;BME280;66892;53.236;6.550;2023-11-19T06:10:42;100484.88;;;10.17;100.00
77725;BME280;66892;53.236;6.550;2023-11-19T06:13:08;100474.34;;;10.14;100.00
77725;BME280;66892;53.236;6.550;2023-11-19T06:15:35;100475.19;;;10.16;100.00
77725;BME280;66892;53.236;6.550;2023-11-19T06:18:02;100478.66;;;10.27;100.00
77725;BME280;66892;53.236;6.550;2023-11-19T06:20:29;100476.78;;;10.35;100.00
77725;BME280;66892;53.236;6.550;2023-11-19T06:22:55;100476.78;;;10.35;100.00
77725;BME280;66892;53.236;6.550;2023-11-19T06:25:22;100476.78;;;10.35;100.00
77725;BME280;66892;53.236;6.550;2023-11-19T06:27:51;100481.22;;;10.32;100.00
77725;BME280;66892;53.236;6.550;2023-11-19T06:30:18;100493.59;;;10.30;100.00
77725;BME280;66892;53.236;6.550;2023-11-19T06:32:44;100492.72;;;10.29;100.00
77725;BME280;66892;53.236;6.550;2023-11-19T06:35:10;100495.31;;;10.35;100.00
77725;BME280;66892;53.236;6.550;2023-11-19T06:37:38;100494.44;;;10.32;100.00
77725;BME280;66892;53.236;6.550;2023-11-19T06:40:05;100504.09;;;10.39;100.00
77725;BME280;66892;53.236;6.550;2023-11-19T06:42:31;100502.31;;;10.39;100.00
77725;BME280;66892;53.236;6.550;2023-11-19T06:44:59;100496.19;;;10.36;100.00
77725;BME280;66892;53.236;6.550;2023-11-19T06:47:25;100499.72;;;10.33;100.00
77725;BME280;66892;53.236;6.550;2023-11-19T06:49:52;100495.31;;;10.32;100.00
77725;BME280;66892;53.236;6.550;2023-11-19T06:52:18;100496.22;;;10.30;100.00
77725;BME280;66892;53.236;6.550;2023-11-19T06:54:45;100498.84;;;10.31;100.00
77725;BME280;66892;53.236;6.550;2023-11-19T06:57:14;100505.03;;;10.29;100.00
77725;BME280;66892;53.236;6.550;2023-11-19T06:59:40;100501.53;;;10.25;100.00
77725;BME280;66892;53.236;6.550;2023-11-19T07:02:07;100506.84;;;10.22;100.00
77725;BME280;66892;53.236;6.550;2023-11-19T07:04:33;100494.53;;;10.18;100.00
77725;BME280;66892;53.236;6.550;2023-11-19T07:06:59;100494.56;;;10.15;100.00
77725;BME280;66892;53.236;6.550;2023-11-19T07:09:25;100501.63;;;10.18;100.00
77725;BME280;66892;53.236;6.550;2023-11-19T07:11:51;100494.56;;;10.12;100.00
77725;BME280;66892;53.236;6.550;2023-11-19T07:14:18;100500.72;;;10.13;100.00
77725;BME280;66892;53.236;6.550;2023-11-19T07:16:45;100498.13;;;10.14;100.00
77725;BME280;66892;53.236;6.550;2023-11-19T07:19:13;100495.47;;;10.10;100.00
77725;BME280;66892;53.236;6.550;2023-11-19T07:21:41;100496.38;;;10.04;100.00
77725;BME280;66892;53.236;6.550;2023-11-19T07:24:10;100500.75;;;10.05;100.00
77725;BME280;66892;53.236;6.550;2023-11-19T07:26:36;100505.19;;;10.03;100.00
77725;BME280;66892;53.236;6.550;2023-11-19T07:29:03;100504.31;;;10.04;100.00
77725;BME280;66892;53.236;6.550;2023-11-19T07:31:29;100515.72;;;10.06;100.00
77725;BME280;66892;53.236;6.550;2023-11-19T07:33:55;100515.75;;;10.03;100.00
77725;BME280;66892;53.236;6.550;2023-11-19T07:36:22;100514.88;;;10.02;100.00
77725;BME280;66892;53.236;6.550;2023-11-19T07:38:48;100520.19;;;9.96;100.00
77725;BME280;66892;53.236;6.550;2023-11-19T07:41:15;100519.28;;;9.99;100.00
77725;BME280;66892;53.236;6.550;2023-11-19T07:43:43;100519.31;;;9.96;100.00
77725;BME280;66892;53.236;6.550;2023-11-19T07:46:11;100526.38;;;9.98;100.00
77725;BME280;66892;53.236;6.550;2023-11-19T07:48:38;100526.31;;;10.06;100.00
77725;BME280;66892;53.236;6.550;2023-11-19T07:51:05;100532.44;;;10.16;100.00
77725;BME280;66892;53.236;6.550;2023-11-19T07:53:32;100534.19;;;10.18;100.00
77725;BME280;66892;53.236;6.550;2023-11-19T07:55:59;100537.69;;;10.20;100.00
77725;BME280;66892;53.236;6.550;2023-11-19T07:58:28;100544.75;;;10.15;100.00
77725;BME280;66892;53.236;6.550;2023-11-19T08:00:54;100539.47;;;10.18;100.00
77725;BME280;66892;53.236;6.550;2023-11-19T08:03:20;100536.81;;;10.23;100.00
77725;BME280;66892;53.236;6.550;2023-11-19T08:05:47;100546.41;;;10.31;100.00
77725;BME280;66892;53.236;6.550;2023-11-19T08:08:14;100549.91;;;10.35;100.00
77725;BME280;66892;53.236;6.550;2023-11-19T08:10:41;100546.38;;;10.37;100.00
77725;BME280;66892;53.236;6.550;2023-11-19T08:13:07;100548.16;;;10.37;100.00
77725;BME280;66892;53.236;6.550;2023-11-19T08:15:33;100545.50;;;10.38;100.00
77725;BME280;66892;53.236;6.550;2023-11-19T08:17:59;100553.41;;;10.43;100.00
77725;BME280;66892;53.236;6.550;2023-11-19T08:20:25;100551.63;;;10.40;100.00
77725;BME280;66892;53.236;6.550;2023-11-19T08:22:51;100559.59;;;10.37;100.00
77725;BME280;66892;53.236;6.550;2023-11-19T08:25:17;100564.00;;;10.35;100.00
77725;BME280;66892;53.236;6.550;2023-11-19T08:27:45;100544.59;;;10.38;100.00
77725;BME280;66892;53.236;6.550;2023-11-19T08:30:12;100556.09;;;10.35;100.00
77725;BME280;66892;53.236;6.550;2023-11-19T08:32:38;100546.41;;;10.31;100.00
77725;BME280;66892;53.236;6.550;2023-11-19T08:35:04;100557.00;;;10.31;100.00
77725;BME280;66892;53.236;6.550;2023-11-19T08:37:31;100557.88;;;10.33;100.00
77725;BME280;66892;53.236;6.550;2023-11-19T08:39:57;100554.31;;;10.39;100.00
77725;BME280;66892;53.236;6.550;2023-11-19T08:42:23;100557.84;;;10.36;100.00
77725;BME280;66892;53.236;6.550;2023-11-19T08:44:50;100566.63;;;10.38;100.00
77725;BME280;66892;53.236;6.550;2023-11-19T08:47:20;100566.63;;;10.43;100.00
77725;BME280;66892;53.236;6.550;2023-11-19T08:49:46;100556.81;;;10.54;100.00
77725;BME280;66892;53.236;6.550;2023-11-19T08:52:12;100556.81;;;10.58;100.00
77725;BME280;66892;53.236;6.550;2023-11-19T08:54:42;100564.75;;;10.55;100.00
77725;BME280;66892;53.236;6.550;2023-11-19T08:57:08;100565.66;;;10.56;100.00
77725;BME280;66892;53.236;6.550;2023-11-19T08:59:34;100569.06;;;10.69;100.00
77725;BME280;66892;53.236;6.550;2023-11-19T09:02:02;100573.38;;;10.82;100.00
77725;BME280;66892;53.236;6.550;2023-11-19T09:04:28;100565.41;;;10.83;100.00
77725;BME280;66892;53.236;6.550;2023-11-19T09:06:54;100566.41;;;10.72;100.00
77725;BME280;66892;53.236;6.550;2023-11-19T09:09:21;100577.09;;;10.53;100.00
77725;BME280;66892;53.236;6.550;2023-11-19T09:11:47;100566.63;;;10.41;100.00
77725;BME280;66892;53.236;6.550;2023-11-19T09:14:13;100573.72;;;10.35;100.00
77725;BME280;66892;53.236;6.550;2023-11-19T09:16:39;100569.34;;;10.34;100.00
77725;BME280;66892;53.236;6.550;2023-11-19T09:19:06;100564.91;;;10.34;100.00
77725;BME280;66892;53.236;6.550;2023-11-19T09:21:32;100571.94;;;10.35;100.00
77725;BME280;66892;53.236;6.550;2023-11-19T09:24:02;100578.13;;;10.33;100.00
77725;BME280;66892;53.236;6.550;2023-11-19T09:26:28;100566.63;;;10.43;100.00
77725;BME280;66892;53.236;6.550;2023-11-19T09:28:54;100578.81;;;10.61;100.00
77725;BME280;66892;53.236;6.550;2023-11-19T09:31:21;100570.75;;;10.77;100.00
77725;BME280;66892;53.236;6.550;2023-11-19T09:33:47;100573.16;;;11.03;100.00
77725;BME280;66892;53.236;6.550;2023-11-19T09:36:15;100576.47;;;11.25;100.00
77725;BME280;66892;53.236;6.550;2023-11-19T09:38:43;100568.53;;;11.26;100.00
77725;BME280;66892;53.236;6.550;2023-11-19T09:41:10;100559.88;;;11.09;100.00
77725;BME280;66892;53.236;6.550;2023-11-19T09:43:39;100570.53;;;10.98;100.00
77725;BME280;66892;53.236;6.550;2023-11-19T09:46:06;100566.13;;;10.99;100.00
77725;BME280;66892;53.236;6.550;2023-11-19T09:48:33;100572.25;;;11.07;100.00
77725;BME280;66892;53.236;6.550;2023-11-19T09:50:59;100574.72;;;11.21;100.00
77725;BME280;66892;53.236;6.550;2023-11-19T09:53:27;100558.69;;;11.39;100.00
77725;BME280;66892;53.236;6.550;2023-11-19T09:55:53;100567.47;;;11.42;100.00
77725;BME280;66892;53.236;6.550;2023-11-19T09:58:21;100557.78;;;11.38;100.00
77725;BME280;66892;53.236;6.550;2023-11-19T10:00:47;100578.22;;;11.26;100.00
77725;BME280;66892;53.236;6.550;2023-11-19T10:03:13;100571.28;;;11.16;100.00
77725;BME280;66892;53.236;6.550;2023-11-19T10:05:39;100570.41;;;11.14;100.00
77725;BME280;66892;53.236;6.550;2023-11-19T10:08:06;100557.97;;;11.23;100.00
77725;BME280;66892;53.236;6.550;2023-11-19T10:10:35;100568.50;;;11.28;100.00
77725;BME280;66892;53.236;6.550;2023-11-19T10:13:01;100570.16;;;11.39;100.00
77725;BME280;66892;53.236;6.550;2023-11-19T10:15:27;100575.44;;;11.39;100.00
77725;BME280;66892;53.236;6.550;2023-11-19T10:17:54;100563.06;;;11.40;100.00
77725;BME280;66892;53.236;6.550;2023-11-19T10:20:21;100570.03;;;11.47;100.00
77725;BME280;66892;53.236;6.550;2023-11-19T10:22:47;100565.47;;;11.59;100.00
77725;BME280;66892;53.236;6.550;2023-11-19T10:25:22;100567.13;;;11.74;100.00
77725;BME280;66892;53.236;6.550;2023-11-19T10:27:50;100573.22;;;11.81;100.00
77725;BME280;66892;53.236;6.550;2023-11-19T10:30:18;100556.53;;;11.73;100.00
77725;BME280;66892;53.236;6.550;2023-11-19T10:32:44;100564.72;;;11.50;100.00
77725;BME280;66892;53.236;6.550;2023-11-19T10:35:10;100561.28;;;11.42;100.00
77725;BME280;66892;53.236;6.550;2023-11-19T10:37:37;100568.34;;;11.41;100.00
77725;BME280;66892;53.236;6.550;2023-11-19T10:40:05;100564.72;;;11.51;100.00
77725;BME280;66892;53.236;6.550;2023-11-19T10:42:31;100573.53;;;11.50;100.00
77725;BME280;66892;53.236;6.550;2023-11-19T10:44:58;100572.78;;;11.38;100.00
77725;BME280;66892;53.236;6.550;2023-11-19T10:47:25;100566.69;;;11.31;100.00
77725;BME280;66892;53.236;6.550;2023-11-19T10:49:51;100567.63;;;11.26;100.00
77725;BME280;66892;53.236;6.550;2023-11-19T10:52:18;100569.31;;;11.34;100.00
77725;BME280;66892;53.236;6.550;2023-11-19T10:54:49;100555.88;;;11.49;100.00
77725;BME280;66892;53.236;6.550;2023-11-19T10:57:20;100570.69;;;11.65;100.00
77725;BME280;66892;53.236;6.550;2023-11-19T10:59:47;100573.38;;;11.64;100.00
77725;BME280;66892;53.236;6.550;2023-11-19T11:02:16;100571.69;;;11.58;100.00
77725;BME280;66892;53.236;6.550;2023-11-19T11:04:46;100568.25;;;11.52;100.00
77725;BME280;66892;53.236;6.550;2023-11-19T11:07:14;100567.34;;;11.51;100.00
77725;BME280;66892;53.236;6.550;2023-11-19T11:09:41;100557.69;;;11.49;100.00
77725;BME280;66892;53.236;6.550;2023-11-19T11:12:09;100562.97;;;11.47;100.00
77725;BME280;66892;53.236;6.550;2023-11-19T11:14:37;100569.19;;;11.43;100.00
77725;BME280;66892;53.236;6.550;2023-11-19T11:17:04;100557.69;;;11.49;100.00
77725;BME280;66892;53.236;6.550;2023-11-19T11:19:35;100561.19;;;11.49;100.00
77725;BME280;66892;53.236;6.550;2023-11-19T11:22:02;100567.28;;;11.56;100.00
77725;BME280;66892;53.236;6.550;2023-11-19T11:24:43;100562.78;;;11.62;100.00
77725;BME280;66892;53.236;6.550;2023-11-19T11:27:32;100547.81;;;11.60;100.00
77725;BME280;66892;53.236;6.550;2023-11-19T11:30:09;100563.78;;;11.54;100.00
77725;BME280;66892;53.236;6.550;2023-11-19T11:32:43;100571.66;;;11.60;100.00
77725;BME280;66892;53.236;6.550;2023-11-19T11:35:26;100559.22;;;11.67;100.00
77725;BME280;66892;53.236;6.550;2023-11-19T11:38:01;100550.31;;;11.77;100.00
77725;BME280;66892;53.236;6.550;2023-11-19T11:40:27;100556.34;;;11.85;100.00
77725;BME280;66892;53.236;6.550;2023-11-19T11:42:53;100545.75;;;11.86;100.00
77725;BME280;66892;53.236;6.550;2023-11-19T11:45:35;100565.19;;;11.87;100.00
77725;BME280;66892;53.236;6.550;2023-11-19T11:48:08;100554.72;;;11.78;100.00
77725;BME280;66892;53.236;6.550;2023-11-19T11:50:47;100552.25;;;11.59;100.00
77725;BME280;66892;53.236;6.550;2023-11-19T11:53:16;100549.84;;;11.37;100.00
77725;BME280;66892;53.236;6.550;2023-11-19T11:55:56;100560.59;;;11.26;100.00
77725;BME280;66892;53.236;6.550;2023-11-19T11:58:32;100561.59;;;11.11;100.00
77725;BME280;66892;53.236;6.550;2023-11-19T12:01:02;100558.16;;;11.02;100.00
77725;BME280;66892;53.236;6.550;2023-11-19T12:03:29;100546.81;;;10.89;100.00
77725;BME280;66892;53.236;6.550;2023-11-19T12:05:57;100545.13;;;10.84;100.00
77725;BME280;66892;53.236;6.550;2023-11-19T12:08:28;100543.31;;;10.86;100.00
77725;BME280;66892;53.236;6.550;2023-11-19T12:10:57;100548.63;;;10.86;100.00
77725;BME280;66892;53.236;6.550;2023-11-19T12:13:53;100548.50;;;11.01;100.00
77725;BME280;66892;53.236;6.550;2023-11-19T12:16:21;100538.53;;;11.26;100.00
77725;BME280;66892;53.236;6.550;2023-11-19T12:18:47;100534.78;;;11.43;100.00
77725;BME280;66892;53.236;6.550;2023-11-19T12:21:28;100542.47;;;11.64;100.00
77725;BME280;66892;53.236;6.550;2023-11-19T12:23:57;100536.13;;;11.79;100.00
77725;BME280;66892;53.236;6.550;2023-11-19T12:26:35;100536.97;;;11.84;100.00
77725;BME280;66892;53.236;6.550;2023-11-19T12:29:02;100548.44;;;11.83;100.00
77725;BME280;66892;53.236;6.550;2023-11-19T12:31:32;100544.84;;;11.89;100.00
77725;BME280;66892;53.236;6.550;2023-11-19T12:34:06;100523.44;;;12.04;100.00
77725;BME280;66892;53.236;6.550;2023-11-19T12:36:34;100535.59;;;12.19;100.00
77725;BME280;66892;53.236;6.550;2023-11-19T12:39:00;100546.19;;;12.17;100.00
77725;BME280;66892;53.236;6.550;2023-11-19T12:41:26;100533.88;;;12.16;100.00